Terminal Aerodrome Forecast
Issued by NWS

Home | Current Version | Previous Version | Text Only | Print | Product List | Glossary On
Versions: 1 2 3 4 5 6 7 8 9 10 11 12 13 14 15 16 17 18 19 20 21 22
000
FTUS45 KABQ 241728
TAFLVS
TAF
KLVS 241728Z 2418/2518 26015G24KT P6SM SCT080
     FM242100 27019G29KT P6SM VCTS BKN070CB
     FM250100 26009KT P6SM SCT100 SCT150
     FM251600 23018G26KT P6SM SCT060=

USA.gov is the U.S. government's official web portal to all federal, state and local government web resources and services.